Lumi/Jää/Keli Alkaa: 23-09-2019 22:00 Päättyy: 24-09-2019 07:00 Varoitus: Lumi/Jää/Keli Taso: Keltainen info button
suomi:
Liikennesää: Ajokeli muuttuu huonoksi yöllä ja aamulla tienpintojen jäätymisen vuoksi.

svenska:
Trafikvädret: Väglaget blir dåligt på natten och morgonen p.g.a. tillfrysning av vägytor.

english:
Traffic weather warning: Bad road conditions are expected by night and in the morning because of ice-covered roads. 


Webkamera Lisätietoa Webcam


Varoitus: Lumi/Jää Lisätietoa

rain snow radar


Yksityisiä sääasemia lähellä:

Sääasema Juupajoki

Sääasema Orivesi

Sääasema Muurame

Sääasema Jyväskylä

Sääasema Vihtavuori


Löydät sääaseman tiedot myös:

Finland Weather Exchange

European Weather Network

Weather Underground

AWEKAS

Windy.com



Säätiedot lähimmiltä METAR asemilta

   
EFHA - Halli (Fin-Afb), Finland
Etäisyys asemalta: Kaakko 25 km
Päivitetty: 23.09.2019 21:20
Selkeää  
Selkeää  
   Tuuli: Luode 2.1 m/s
Tuuli: Luode 2.1 m/s
Lämpötila: 4°C
Tuulen hyytävyys: 2°C
Kastepiste: 1°C
Kosteus: 81%
Ilmanpaine: 1020 hPa
Näkyvyys: Enemmän kuin 10 km
Pilvitiedot: Selkeää
EFHA 231820Z AUTO 31004KT CAVOK 04/01 Q1020
EFJY - Jyvaskyla (Mil/Civ), Finland
Etäisyys asemalta: Koillinen 75 km
Päivitetty: 23.09.2019 21:20
Selkeää  
Selkeää  
   Tuuli: Länsiluode 3.1 m/s
Tuuli: Länsiluode 3.1 m/s
Lämpötila: 2°C
Tuulen hyytävyys: -1°C
Kastepiste: -1°C
Kosteus: 81%
Ilmanpaine: 1020 hPa
Näkyvyys: Enemmän kuin 10 km
Pilvitiedot: Selkeää
EFJY 231820Z AUTO 30006KT CAVOK 02/M01 Q1020
EFTP - Tampere/Pirkkala, Finland
Etäisyys asemalta: Lounas 81 km
Päivitetty: 23.09.2019 21:20
Selkeää  
Selkeää  
   Tuuli: Vaihtelee Tyyntä
Tuuli: Vaihtelee Tyyntä
Lämpötila: 2°C
Kastepiste: 1°C
Kosteus: 93%
Ilmanpaine: 1021 hPa
Näkyvyys: Enemmän kuin 10 km
Pilvitiedot: Selkeää
EFTP 231820Z AUTO VRB00KT CAVOK 02/01 Q1021
EFSI - Seinajoki-Ilmajoki, Finland
Etäisyys asemalta: Luode 114 km
Päivitetty: 23.09.2019 21:20
Selkeää  
Selkeää  
   Tuuli: Tyyntä
Tuuli: Tyyntä
Lämpötila: 0°C
Kastepiste: -1°C
Kosteus: 93%
Ilmanpaine: 1021 hPa
Näkyvyys: Enemmän kuin 10 km
Pilvitiedot: Selkeää
EFSI 231820Z AUTO 00000KT CAVOK M00/M01 Q1021
EFMI - Mikkeli, Finland
Etäisyys asemalta: Itäkaakko 147 km
Päivitetty: 23.09.2019 21:20
Melkein pilvistä  
Melkein pilvistä  
   Tuuli: Tyyntä
Tuuli: Tyyntä
Lämpötila: 2°C
Kastepiste: 2°C
Kosteus: 100%
Ilmanpaine: 1019 hPa
Pilvisyys: Melkein pilvistä
Näkyvyys: Enemmän kuin 10 km
Pilvitiedot: Vähäistä pilvisyyttä 1311 m,
Puolipilvistä 4054 m,
Melkein pilvistä 5822 m
EFMI 231820Z AUTO 00000KT 9999 FEW043 SCT133 BKN191 02/02 Q1019
EFPO - Pori (Mil/Civ), Finland
Etäisyys asemalta: Länsilounas 154 km
Päivitetty: 23.09.2019 21:20
Vähäistä pilvisyyttä  
Vähäistä pilvisyyttä  
   Tuuli: Vaihtelee 1 m/s
Tuuli: Vaihtelee 1 m/s
Lämpötila: 3°C
Kastepiste: 2°C
Kosteus: 93%
Ilmanpaine: 1021 hPa
Pilvisyys: Vähäistä pilvisyyttä
Näkyvyys: Enemmän kuin 10 km
Pilvitiedot: Vähäistä pilvisyyttä 1128 m
EFPO 231820Z AUTO VRB02KT 9999 FEW037/// 03/02 Q1021
EFUT - Utti (Fin-Afb), Finland
Etäisyys asemalta: Kaakko 180 km
Päivitetty: 23.09.2019 21:20
Melkein pilvistä  
Melkein pilvistä  
   Tuuli: Länsiluode 2.6 m/s
Tuuli: Länsiluode 2.6 m/s
Lämpötila: 6°C
Tuulen hyytävyys: 4°C
Kastepiste: 0°C
Kosteus: 66%
Ilmanpaine: 1019 hPa
Pilvisyys: Melkein pilvistä
Näkyvyys: Enemmän kuin 10 km
Pilvitiedot: Melkein pilvistä 1341 m
EFUT 231820Z AUTO 30005KT 270V330 9999 BKN044 06/M00 Q1019
EFVA - Vaasa, Finland
Etäisyys asemalta: Luode 180 km
Päivitetty: 23.09.2019 21:20
Selkeää  
Selkeää  
   Tuuli: Etelä 0.5 m/s
Tuuli: Etelä 0.5 m/s
Lämpötila: 1°C
Kastepiste: 0°C
Kosteus: 93%
Ilmanpaine: 1021 hPa
Näkyvyys: Enemmän kuin 10 km
Pilvitiedot: Selkeää
EFVA 231820Z AUTO 17001KT CAVOK 01/00 Q1021
EFHK - Helsinki/Vantaa, Finland
Etäisyys asemalta: Etelä 191 km
Päivitetty: 23.09.2019 21:20
Vähäistä pilvisyyttä  
Vähäistä pilvisyyttä  
   Tuuli: Länsi 2.6 m/s
Tuuli: Länsi 2.6 m/s
Lämpötila: 3°C
Tuulen hyytävyys: 1°C
Kastepiste: 1°C
Kosteus: 87%
Ilmanpaine: 1021 hPa
Pilvisyys: Vähäistä pilvisyyttä
Näkyvyys: Enemmän kuin 10 km
Pilvitiedot: Vähäistä pilvisyyttä 1372 m
EFHK 231820Z 28005KT 9999 FEW045 03/01 Q1021 NOSIG

Alkuperäinen skripti  Saratoga-weather.org Sovitettu myös templatelle  Weerstation Leuven

Laitteet joita käytämme:

Sääasema
Davis VP2

Sääasemaohjelma
Cumulus

Sääaseman palvelin
HP ProBook 6460b

Palveluntarjoaja
Radicenter

Davis VP2

Cumulus

HP ProBook 6460b

Radicenter




Flag Counter Cumulus Top Weather Sites